Time;durP1;ratioP1;P1;durP2;ratioP2;P2;SDS_P1;SDS_P2;PMS_P1;PMS_P2;Temp;Humidity;BMP_temperature;BMP_pressure;BME280_temperature;BME280_humidity;BME280_pressure;Samples;Min_cycle;Max_cycle;Signal;HPM_P1;HPM_P2
2021/07/02 00:00:48;;;;;;;0.00;0.00;;;16.80;99.90;;;;;;5060283;28;20037;-80
2021/07/02 00:03:14;;;;;;;3.30;0.63;;;16.70;99.90;;;;;;5048125;28;20460;-80
2021/07/02 00:05:40;;;;;;;0.30;0.30;;;16.60;99.90;;;;;;5046868;28;20071;-80
2021/07/02 00:08:06;;;;;;;0.23;0.23;;;16.60;99.90;;;;;;5049974;28;20029;-80
2021/07/02 00:10:31;;;;;;;0.67;0.67;;;16.50;99.90;;;;;;5047886;28;20518;-80
2021/07/02 00:12:57;;;;;;;0.00;0.00;;;16.40;99.90;;;;;;5055299;28;20505;-80
2021/07/02 00:15:23;;;;;;;0.13;0.13;;;16.40;99.90;;;;;;5047990;28;20078;-80
2021/07/02 00:17:49;;;;;;;0.70;0.40;;;16.40;99.90;;;;;;5047915;28;20036;-80
2021/07/02 00:20:15;;;;;;;0.00;0.00;;;16.50;99.90;;;;;;5055026;28;20035;-80
2021/07/02 00:22:41;;;;;;;0.32;0.10;;;16.40;99.90;;;;;;5060696;28;20024;-80
2021/07/02 00:25:08;;;;;;;0.13;0.10;;;16.40;99.90;;;;;;5055159;28;20128;-80
2021/07/02 00:27:35;;;;;;;0.17;0.10;;;16.50;99.90;;;;;;5047914;28;20036;-80
2021/07/02 00:30:01;;;;;;;0.10;0.10;;;16.40;99.90;;;;;;5053611;28;20225;-80
2021/07/02 00:32:26;;;;;;;7.70;2.07;;;16.40;99.90;;;;;;5052162;28;20104;-80
2021/07/02 00:34:53;;;;;;;0.20;0.20;;;16.40;99.90;;;;;;5054978;28;20036;-80
2021/07/02 00:37:19;;;;;;;0.50;0.47;;;16.40;99.90;;;;;;5055216;28;20021;-80
2021/07/02 00:39:45;;;;;;;0.20;0.20;;;16.20;99.90;;;;;;5063975;28;20081;-80
2021/07/02 00:42:11;;;;;;;0.00;0.00;;;16.10;99.90;;;;;;5062739;28;20064;-80
2021/07/02 00:44:48;;;;;;;0.20;0.20;;;16.10;99.90;;;;;;5048971;28;20066;-80
2021/07/02 00:47:15;;;;;;;0.30;0.30;;;16.10;99.90;;;;;;5061990;28;20335;-80
2021/07/02 00:49:42;;;;;;;0.52;0.52;;;16.10;99.90;;;;;;5062226;28;20067;-80
2021/07/02 00:52:10;;;;;;;0.47;0.47;;;16.10;99.90;;;;;;5059048;28;20015;-80
2021/07/02 00:54:37;;;;;;;0.20;0.20;;;16.10;99.90;;;;;;5057333;28;20037;-80
2021/07/02 00:57:05;;;;;;;0.17;0.17;;;16.10;99.90;;;;;;5055637;28;20070;-80
2021/07/02 00:59:32;;;;;;;0.10;0.10;;;16.00;99.90;;;;;;5061098;28;20043;-80
2021/07/02 01:01:59;;;;;;;0.15;0.15;;;15.90;99.90;;;;;;5061338;28;20024;-80
2021/07/02 01:04:25;;;;;;;0.10;0.10;;;15.90;99.90;;;;;;5050678;28;20039;-80
2021/07/02 01:06:53;;;;;;;0.20;0.20;;;15.80;99.90;;;;;;5051068;28;20070;-80
2021/07/02 01:09:23;;;;;;;0.10;0.10;;;15.80;99.90;;;;;;5053634;28;20039;-80
2021/07/02 01:11:49;;;;;;;0.13;0.13;;;15.80;99.90;;;;;;5048300;28;20021;-81
2021/07/02 01:14:15;;;;;;;0.10;0.10;;;15.80;99.90;;;;;;5060482;28;20032;-81
2021/07/02 01:16:41;;;;;;;0.10;0.10;;;15.70;99.90;;;;;;5051824;28;20158;-80
2021/07/02 01:19:07;;;;;;;0.03;0.03;;;15.60;99.90;;;;;;5053709;28;20060;-80
2021/07/02 01:21:34;;;;;;;0.10;0.10;;;15.40;99.90;;;;;;5056849;28;20029;-80
2021/07/02 01:24:01;;;;;;;0.20;0.20;;;15.40;99.90;;;;;;5061166;28;20029;-80
2021/07/02 01:26:29;;;;;;;0.10;0.10;;;15.50;99.90;;;;;;5058658;28;20021;-80
2021/07/02 01:28:55;;;;;;;0.60;0.57;;;15.60;99.90;;;;;;5057839;28;20533;-80
2021/07/02 01:31:21;;;;;;;0.30;0.30;;;15.60;99.90;;;;;;5060952;28;20020;-80
2021/07/02 01:33:47;;;;;;;0.17;0.17;;;15.50;99.90;;;;;;5057533;28;20766;-80
2021/07/02 01:36:20;;;;;;;0.10;0.10;;;15.50;99.90;;;;;;5064713;28;20266;-80
2021/07/02 01:38:46;;;;;;;0.20;0.20;;;15.40;99.90;;;;;;5056131;28;20063;-80
2021/07/02 01:41:12;;;;;;;0.17;0.17;;;15.40;99.90;;;;;;5070167;28;20078;-80
2021/07/02 01:43:38;;;;;;;0.43;0.43;;;15.40;99.90;;;;;;5056920;28;20352;-80
2021/07/02 01:46:04;;;;;;;0.10;0.10;;;15.20;99.90;;;;;;5058208;28;20487;-80
2021/07/02 01:48:30;;;;;;;0.53;0.40;;;15.10;99.90;;;;;;5058515;28;20028;-81
2021/07/02 01:50:56;;;;;;;0.57;0.57;;;15.10;99.90;;;;;;5067359;28;20033;-80
2021/07/02 01:53:23;;;;;;;0.10;0.10;;;15.10;99.90;;;;;;5057065;28;20379;-80
2021/07/02 01:55:50;;;;;;;0.55;0.55;;;15.00;99.90;;;;;;5065594;28;20032;-80
2021/07/02 01:58:16;;;;;;;0.45;0.38;;;15.00;99.90;;;;;;5071126;28;20047;-80
2021/07/02 02:00:55;;;;;;;0.10;0.10;;;15.10;99.90;;;;;;5065080;28;20071;-80
2021/07/02 02:03:22;;;;;;;0.30;0.30;;;15.10;99.90;;;;;;5052991;28;20029;-80
2021/07/02 02:05:48;;;;;;;0.52;0.30;;;15.20;99.90;;;;;;5066289;28;20052;-80
2021/07/02 02:08:17;;;;;;;0.00;0.00;;;15.20;99.90;;;;;;5061972;28;20449;-80
2021/07/02 02:10:43;;;;;;;0.17;0.17;;;15.10;99.90;;;;;;5062274;28;20539;-80
2021/07/02 02:13:09;;;;;;;0.10;0.10;;;15.20;99.90;;;;;;5061664;28;20064;-80
2021/07/02 02:15:35;;;;;;;0.50;0.50;;;15.10;99.90;;;;;;5064850;28;20544;-80
2021/07/02 02:18:01;;;;;;;0.03;0.03;;;15.10;99.90;;;;;;5067868;28;20539;-80
2021/07/02 02:20:27;;;;;;;0.10;0.10;;;15.20;99.90;;;;;;5057817;28;20048;-80
2021/07/02 02:22:53;;;;;;;0.32;0.32;;;15.10;99.90;;;;;;5049917;28;20260;-80
2021/07/02 02:25:19;;;;;;;0.20;0.20;;;15.00;99.90;;;;;;5056916;28;20051;-80
2021/07/02 02:27:47;;;;;;;0.20;0.20;;;14.90;99.90;;;;;;5050700;28;20669;-80
2021/07/02 02:30:14;;;;;;;0.10;0.10;;;14.90;99.90;;;;;;5054050;28;20037;-80
2021/07/02 02:32:41;;;;;;;0.10;0.10;;;14.90;99.90;;;;;;5055729;28;20009;-80
2021/07/02 02:35:08;;;;;;;0.47;0.47;;;14.90;99.90;;;;;;5050243;28;20708;-80
2021/07/02 02:37:34;;;;;;;1.05;0.52;;;14.90;99.90;;;;;;5049490;28;20029;-80
2021/07/02 02:40:02;;;;;;;0.40;0.40;;;14.90;99.90;;;;;;5049509;28;20032;-80
2021/07/02 02:42:31;;;;;;;0.10;0.10;;;14.90;99.90;;;;;;5059794;28;20056;-80
2021/07/02 02:44:57;;;;;;;0.60;0.57;;;14.80;99.90;;;;;;5051635;28;20051;-80
2021/07/02 02:47:23;;;;;;;0.20;0.20;;;14.80;99.90;;;;;;5056169;28;20032;-80
2021/07/02 02:49:49;;;;;;;0.10;0.10;;;14.80;99.90;;;;;;5061136;28;20447;-80
2021/07/02 02:52:14;;;;;;;0.20;0.20;;;14.80;99.90;;;;;;5048096;28;20025;-80
2021/07/02 02:54:40;;;;;;;0.33;0.33;;;14.70;99.90;;;;;;5051747;28;20041;-80
2021/07/02 02:57:07;;;;;;;0.20;0.20;;;14.70;99.90;;;;;;5061704;28;20032;-80
2021/07/02 02:59:35;;;;;;;0.30;0.20;;;14.70;99.90;;;;;;5050546;28;20029;-80
2021/07/02 03:02:06;;;;;;;0.30;0.30;;;14.70;99.90;;;;;;5058318;28;20040;-80
2021/07/02 03:04:35;;;;;;;0.38;0.38;;;14.70;99.90;;;;;;5057810;28;20040;-80
2021/07/02 03:07:03;;;;;;;0.20;0.20;;;14.60;99.90;;;;;;5048989;28;20020;-80
2021/07/02 03:09:29;;;;;;;0.30;0.30;;;14.50;99.90;;;;;;5068358;28;20475;-80
2021/07/02 03:11:55;;;;;;;0.33;0.33;;;14.50;99.90;;;;;;5070217;28;20046;-80
2021/07/02 03:14:22;;;;;;;0.20;0.20;;;14.50;99.90;;;;;;5061142;28;20031;-80
2021/07/02 03:16:51;;;;;;;0.17;0.17;;;14.50;99.90;;;;;;5049691;28;20025;-80
2021/07/02 03:19:18;;;;;;;0.20;0.20;;;14.50;99.90;;;;;;5056090;28;20101;-81
2021/07/02 03:21:43;;;;;;;;;;;14.50;99.90;;;;;;5069460;28;20114;-80
2021/07/02 03:24:10;;;;;;;0.30;0.30;;;14.50;99.90;;;;;;5049235;28;19920;-80
2021/07/02 03:26:36;;;;;;;0.30;0.30;;;14.50;99.90;;;;;;5053575;28;20275;-80
2021/07/02 03:29:02;;;;;;;0.00;0.00;;;14.50;99.90;;;;;;5050194;28;20048;-80
2021/07/02 03:31:29;;;;;;;2.33;0.40;;;14.40;99.90;;;;;;5054342;28;20040;-80
2021/07/02 03:33:55;;;;;;;0.47;0.47;;;14.30;99.90;;;;;;5056984;28;20024;-80
2021/07/02 03:36:21;;;;;;;0.10;0.10;;;14.30;99.90;;;;;;5068720;28;20734;-80
2021/07/02 03:38:47;;;;;;;0.10;0.10;;;14.20;99.90;;;;;;5061073;28;20116;-81
2021/07/02 03:41:13;;;;;;;0.20;0.20;;;14.20;99.90;;;;;;5051254;28;20024;-80
2021/07/02 03:43:39;;;;;;;0.20;0.20;;;14.20;99.90;;;;;;5068479;28;20079;-80
2021/07/02 03:46:05;;;;;;;1.40;0.80;;;14.20;99.90;;;;;;5056923;28;20028;-80
2021/07/02 03:48:31;;;;;;;0.25;0.25;;;14.20;99.90;;;;;;5054577;28;20029;-80
2021/07/02 03:50:57;;;;;;;0.20;0.20;;;14.30;99.90;;;;;;5058204;28;20028;-80
2021/07/02 03:53:23;;;;;;;0.37;0.27;;;14.30;99.90;;;;;;5069368;28;20758;-80
2021/07/02 03:55:49;;;;;;;0.60;0.60;;;14.30;99.90;;;;;;5052071;28;20060;-80
2021/07/02 03:58:15;;;;;;;0.10;0.10;;;14.20;99.90;;;;;;5053660;28;20035;-80
2021/07/02 04:00:41;;;;;;;0.32;0.30;;;14.20;99.90;;;;;;5060857;28;20051;-80
2021/07/02 04:03:07;;;;;;;0.30;0.30;;;14.30;99.90;;;;;;5059923;28;20561;-81
2021/07/02 04:05:33;;;;;;;0.47;0.47;;;14.30;99.90;;;;;;5067132;28;20064;-80
2021/07/02 04:07:59;;;;;;;0.10;0.10;;;14.20;99.90;;;;;;5069075;28;20059;-80
2021/07/02 04:10:26;;;;;;;0.20;0.20;;;14.20;99.90;;;;;;5051585;28;20060;-80
2021/07/02 04:12:51;;;;;;;;;;;14.20;99.90;;;;;;5053721;28;20029;-80
2021/07/02 04:15:17;;;;;;;0.43;0.43;;;14.20;99.90;;;;;;5050094;28;19905;-80
2021/07/02 04:17:43;;;;;;;0.10;0.10;;;14.30;99.90;;;;;;5048872;28;20025;-80
2021/07/02 04:20:11;;;;;;;0.77;0.77;;;14.20;99.90;;;;;;5050840;28;20366;-80
2021/07/02 04:22:37;;;;;;;0.20;0.20;;;14.10;99.90;;;;;;5052704;28;20028;-80
2021/07/02 04:25:08;;;;;;;0.60;0.60;;;14.20;99.90;;;;;;5066775;28;20114;-80
2021/07/02 04:27:34;;;;;;;0.17;0.17;;;14.30;99.90;;;;;;5066318;28;20020;-81
2021/07/02 04:30:02;;;;;;;0.43;0.37;;;14.70;99.90;;;;;;5066038;28;20031;-81
2021/07/02 04:32:29;;;;;;;0.50;0.50;;;15.00;99.90;;;;;;5048024;28;20031;-81
2021/07/02 04:34:55;;;;;;;0.10;0.10;;;15.30;99.90;;;;;;5051570;28;20025;-80
2021/07/02 04:37:20;;;;;;;0.40;0.40;;;15.60;99.90;;;;;;5059768;28;20485;-80
2021/07/02 04:39:46;;;;;;;0.10;0.10;;;15.80;99.90;;;;;;5063477;28;20763;-81
2021/07/02 04:42:13;;;;;;;0.00;0.00;;;15.90;99.90;;;;;;5067438;28;20036;-80
2021/07/02 04:44:39;;;;;;;0.13;0.13;;;16.00;99.90;;;;;;5051104;28;21417;-80
2021/07/02 04:47:06;;;;;;;1.30;0.22;;;16.40;99.90;;;;;;5052638;28;20037;-82
2021/07/02 04:49:33;;;;;;;0.17;0.17;;;16.40;99.90;;;;;;5057471;28;20086;-83
2021/07/02 04:51:59;;;;;;;0.10;0.10;;;16.00;99.90;;;;;;5067707;28;20055;-81
2021/07/02 04:54:25;;;;;;;0.10;0.10;;;16.00;99.90;;;;;;5059771;28;20052;-81
2021/07/02 04:56:52;;;;;;;0.10;0.10;;;16.30;99.90;;;;;;5063751;28;20024;-81
2021/07/02 04:59:19;;;;;;;0.70;0.30;;;16.50;99.90;;;;;;5053670;28;20067;-82
2021/07/02 05:01:46;;;;;;;0.22;0.22;;;16.90;99.90;;;;;;5048911;28;20090;-81
2021/07/02 05:04:12;;;;;;;0.28;0.28;;;17.20;99.90;;;;;;5055749;28;20037;-81
2021/07/02 05:06:39;;;;;;;0.25;0.25;;;17.70;99.90;;;;;;5048708;28;20059;-81
2021/07/02 05:09:06;;;;;;;0.32;0.32;;;18.00;99.90;;;;;;5048007;28;20099;-81
2021/07/02 05:11:34;;;;;;;0.47;0.43;;;17.50;99.90;;;;;;5048818;28;20051;-81
2021/07/02 05:14:02;;;;;;;0.10;0.10;;;17.90;99.90;;;;;;5068536;28;20021;-82
2021/07/02 05:16:28;;;;;;;0.10;0.10;;;18.30;99.90;;;;;;5066435;28;20013;-81
2021/07/02 05:18:55;;;;;;;0.10;0.10;;;18.90;99.90;;;;;;5061152;28;20036;-81
2021/07/02 05:21:23;;;;;;;0.20;0.17;;;19.10;99.90;;;;;;5051814;28;20444;-81
2021/07/02 05:23:49;;;;;;;0.80;0.50;;;19.30;99.90;;;;;;5059181;28;20025;-81
2021/07/02 05:26:15;;;;;;;0.57;0.10;;;19.20;99.90;;;;;;5054522;28;20029;-80
2021/07/02 05:28:41;;;;;;;0.13;0.13;;;18.70;99.90;;;;;;5050377;28;20561;-81
2021/07/02 05:31:07;;;;;;;0.33;0.13;;;18.50;99.90;;;;;;5056116;28;20024;-82
2021/07/02 05:33:33;;;;;;;0.10;0.10;;;18.70;99.90;;;;;;5047615;28;20036;-81
2021/07/02 05:35:59;;;;;;;0.43;0.20;;;19.40;99.90;;;;;;5063921;28;20283;-83
2021/07/02 05:38:25;;;;;;;0.30;0.30;;;19.10;99.90;;;;;;5067567;28;20975;-83
2021/07/02 05:40:55;;;;;;;0.03;0.03;;;18.40;99.90;;;;;;5065159;28;20035;-84
2021/07/02 05:43:25;;;;;;;0.40;0.38;;;18.00;99.90;;;;;;5065973;28;20627;-84
2021/07/02 05:45:51;;;;;;;0.45;0.45;;;19.00;99.90;;;;;;5067708;28;20087;-83
2021/07/02 05:48:18;;;;;;;1.35;0.30;;;18.70;99.90;;;;;;5065955;28;20035;-83
2021/07/02 05:50:45;;;;;;;0.70;0.38;;;20.20;99.90;;;;;;5051252;28;20528;-83
2021/07/02 05:53:12;;;;;;;0.20;0.20;;;21.40;99.90;;;;;;5048629;28;20482;-83
2021/07/02 05:55:38;;;;;;;0.10;0.10;;;21.50;99.90;;;;;;5047385;28;20870;-83
2021/07/02 05:58:03;;;;;;;0.35;0.10;;;21.50;99.90;;;;;;5048334;28;20033;-82
2021/07/02 06:00:29;;;;;;;0.00;0.00;;;21.70;99.90;;;;;;5065499;28;20021;-82
2021/07/02 06:02:55;;;;;;;0.00;0.00;;;21.30;99.90;;;;;;5059431;28;20277;-83
2021/07/02 06:05:21;;;;;;;0.28;0.25;;;21.80;99.90;;;;;;5069589;28;20032;-82
2021/07/02 06:07:55;;;;;;;0.13;0.13;;;21.90;99.90;;;;;;5070525;28;20032;-82
2021/07/02 06:10:24;;;;;;;0.10;0.10;;;22.10;99.90;;;;;;5071494;28;20028;-82
2021/07/02 06:12:50;;;;;;;0.10;0.10;;;22.60;99.90;;;;;;5071866;28;20028;-82
2021/07/02 06:15:18;;;;;;;0.08;0.08;;;22.30;99.90;;;;;;5051293;28;20029;-82
2021/07/02 06:17:45;;;;;;;0.63;0.30;;;22.70;99.90;;;;;;5050426;28;20490;-82
2021/07/02 06:20:13;;;;;;;15.90;0.73;;;22.80;99.90;;;;;;5050422;28;20033;-82
2021/07/02 06:22:39;;;;;;;0.00;0.00;;;23.80;99.90;;;;;;5051034;28;20078;-82
2021/07/02 06:25:07;;;;;;;0.22;0.22;;;24.30;99.90;;;;;;5051324;28;20442;-82
2021/07/02 06:27:33;;;;;;;0.00;0.00;;;24.00;99.90;;;;;;5051726;28;20025;-82
2021/07/02 06:29:59;;;;;;;0.10;0.10;;;26.40;99.90;;;;;;5066742;28;20059;-83
2021/07/02 06:32:25;;;;;;;0.00;0.00;;;26.30;99.90;;;;;;5071675;28;20118;-83
2021/07/02 06:34:51;;;;;;;0.35;0.30;;;26.10;99.90;;;;;;5071593;28;20854;-83
2021/07/02 06:37:17;;;;;;;0.05;0.05;;;26.60;98.70;;;;;;5069812;28;20563;-84
2021/07/02 06:39:43;;;;;;;;;;;26.60;98.20;;;;;;5072535;28;20031;-84
2021/07/02 06:42:08;;;;;;;0.00;0.00;;;24.80;99.90;;;;;;5071637;28;19995;-84
2021/07/02 06:44:34;;;;;;;0.00;0.00;;;25.50;99.90;;;;;;5071818;28;20039;-84
2021/07/02 06:47:00;;;;;;;0.10;0.10;;;25.90;99.10;;;;;;5071258;28;20033;-84
2021/07/02 06:49:26;;;;;;;0.55;0.30;;;23.40;98.60;;;;;;5071308;28;20028;-84
2021/07/02 06:51:52;;;;;;;1.63;0.40;;;22.20;99.90;;;;;;5059727;28;20037;-83
2021/07/02 06:54:18;;;;;;;0.15;0.15;;;21.30;99.90;;;;;;5064636;28;20078;-83
2021/07/02 06:57:17;;;;;;;0.00;0.00;;;20.60;99.90;;;;;;5071400;28;20449;-83
2021/07/02 06:59:40;;;;;;;0.52;0.22;;;20.60;99.90;;;;;;5058146;28;20037;-82
2021/07/02 07:02:10;;;;;;;2.28;0.20;;;21.50;99.90;;;;;;5052773;28;20028;-83
2021/07/02 07:04:36;;;;;;;0.00;0.00;;;22.60;99.90;;;;;;5049072;28;20052;-83
2021/07/02 07:07:07;;;;;;;0.38;0.10;;;22.40;99.90;;;;;;5049063;28;20060;-83
2021/07/02 07:09:34;;;;;;;0.10;0.10;;;22.50;99.90;;;;;;5050286;28;20091;-83
2021/07/02 07:12:01;;;;;;;0.10;0.10;;;23.70;99.90;;;;;;5049936;28;20013;-83
2021/07/02 07:14:27;;;;;;;0.20;0.20;;;24.60;99.50;;;;;;5050690;28;20020;-83
2021/07/02 07:16:53;;;;;;;0.20;0.20;;;24.10;99.90;;;;;;5049483;28;20116;-83
2021/07/02 07:19:24;;;;;;;0.10;0.10;;;23.60;99.90;;;;;;5051042;28;20104;-83
2021/07/02 07:21:50;;;;;;;0.55;0.05;;;22.50;99.90;;;;;;5050894;28;20032;-83
2021/07/02 07:24:15;;;;;;;0.10;0.10;;;22.30;99.90;;;;;;5051160;28;20426;-83
2021/07/02 07:26:41;;;;;;;1.23;1.00;;;22.40;99.90;;;;;;5049448;28;20827;-83
2021/07/02 07:29:07;;;;;;;0.20;0.17;;;22.40;99.90;;;;;;5050609;28;20092;-83
2021/07/02 07:31:33;;;;;;;0.00;0.00;;;23.10;99.90;;;;;;5050515;28;20270;-83
2021/07/02 07:34:00;;;;;;;0.13;0.13;;;22.70;99.90;;;;;;5049226;28;20020;-83
2021/07/02 07:36:28;;;;;;;0.00;0.00;;;22.80;99.90;;;;;;5050657;28;20029;-83
2021/07/02 07:38:55;;;;;;;0.40;0.40;;;23.80;99.90;;;;;;5050429;28;20752;-83
2021/07/02 07:41:23;;;;;;;0.82;0.57;;;27.60;97.80;;;;;;5062954;28;20020;-83
2021/07/02 07:43:49;;;;;;;0.00;0.00;;;28.90;94.90;;;;;;5055481;28;20047;-83
2021/07/02 07:46:15;;;;;;;0.00;0.00;;;27.70;93.90;;;;;;5055892;28;20024;-83
2021/07/02 07:48:41;;;;;;;0.15;0.15;;;28.20;93.30;;;;;;5053762;28;20033;-83
2021/07/02 07:51:32;;;;;;;;;;;27.40;92.90;;;;;;5054922;28;20013;-84
2021/07/02 07:53:58;;;;;;;0.00;0.00;;;26.80;93.30;;;;;;5051590;28;20014;-84
2021/07/02 07:56:26;;;;;;;0.17;0.17;;;27.10;94.30;;;;;;5051257;28;20029;-83
2021/07/02 07:58:53;;;;;;;0.10;0.10;;;29.40;91.50;;;;;;5051273;28;20029;-84
2021/07/02 08:01:20;;;;;;;0.00;0.00;;;31.50;90.00;;;;;;5049768;28;20410;-84
2021/07/02 08:03:46;;;;;;;0.00;0.00;;;31.20;85.30;;;;;;5061003;28;20042;-84
2021/07/02 08:06:11;;;;;;;0.05;0.05;;;29.70;82.50;;;;;;5049263;28;20051;-84
2021/07/02 08:08:37;;;;;;;0.00;0.00;;;27.40;79.90;;;;;;5064821;28;20048;-84
2021/07/02 08:11:03;;;;;;;0.38;0.30;;;28.40;83.40;;;;;;5066469;28;20127;-84
2021/07/02 08:13:29;;;;;;;;;;;29.90;81.90;;;;;;5052048;28;20028;-84
2021/07/02 08:15:56;;;;;;;0.00;0.00;;;30.10;81.80;;;;;;5049311;28;19909;-84
2021/07/02 08:18:23;;;;;;;0.03;0.03;;;30.30;80.70;;;;;;5049693;28;20120;-86
2021/07/02 08:20:49;;;;;;;0.00;0.00;;;30.50;74.70;;;;;;5049061;28;20029;-84
2021/07/02 08:23:14;;;;;;;0.00;0.00;;;31.40;74.90;;;;;;5049508;28;20143;-84
2021/07/02 08:25:40;;;;;;;0.10;0.10;;;32.50;73.10;;;;;;5049035;28;20029;-83
2021/07/02 08:30:51;;;;;;;0.00;0.00;;;32.90;57.20;;;;;;5049346;28;19970;-84
2021/07/02 08:33:21;;;;;;;0.00;0.00;;;33.90;59.40;;;;;;5049413;28;20052;-84
2021/07/02 08:36:03;;;;;;;0.30;0.30;;;35.60;57.70;;;;;;5049251;28;20033;-85
2021/07/02 08:38:29;;;;;;;0.03;0.03;;;38.00;48.90;;;;;;5047580;28;20035;-84
2021/07/02 08:40:55;;;;;;;0.00;0.00;;;38.00;43.10;;;;;;5049098;28;20681;-84
2021/07/02 08:43:21;;;;;;;0.00;0.00;;;39.20;40.20;;;;;;5049032;28;20049;-84
2021/07/02 08:45:47;;;;;;;0.00;0.00;;;38.30;35.30;;;;;;5049255;28;20033;-84
2021/07/02 08:48:18;;;;;;;0.60;0.30;;;38.10;37.10;;;;;;5049309;28;20045;-85
2021/07/02 08:50:44;;;;;;;0.00;0.00;;;39.00;33.00;;;;;;5049159;28;20078;-85
2021/07/02 08:53:10;;;;;;;0.05;0.05;;;39.40;29.70;;;;;;5049040;28;20103;-85
2021/07/02 08:55:38;;;;;;;0.00;0.00;;;39.40;30.70;;;;;;5049226;28;20037;-84
2021/07/02 08:58:13;;;;;;;0.17;0.17;;;35.30;44.00;;;;;;5048540;28;20028;-85
2021/07/02 09:00:41;;;;;;;0.00;0.00;;;34.30;43.00;;;;;;5049205;28;20104;-84
2021/07/02 09:03:32;;;;;;;0.13;0.13;;;35.90;42.60;;;;;;5048786;28;20033;-85
2021/07/02 09:06:13;;;;;;;0.10;0.10;;;36.00;41.50;;;;;;5048625;28;20098;-84
2021/07/02 09:08:40;;;;;;;0.00;0.00;;;37.00;37.90;;;;;;5048836;28;20048;-84
2021/07/02 09:11:26;;;;;;;0.00;0.00;;;37.10;35.50;;;;;;5048361;28;20049;-84
2021/07/02 09:13:52;;;;;;;0.05;0.05;;;36.90;38.00;;;;;;5048572;28;20025;-84
2021/07/02 09:16:36;;;;;;;0.00;0.00;;;38.30;34.30;;;;;;5047132;28;20027;-84
2021/07/02 09:19:25;;;;;;;0.00;0.00;;;38.20;31.70;;;;;;5048505;28;20060;-84
2021/07/02 09:21:51;;;;;;;0.08;0.08;;;39.80;28.40;;;;;;5048826;28;20049;-85
2021/07/02 09:24:43;;;;;;;0.00;0.00;;;39.80;28.20;;;;;;5048483;28;20095;-84
2021/07/02 09:27:29;;;;;;;0.00;0.00;;;38.50;26.10;;;;;;5046871;28;20108;-84
2021/07/02 09:30:13;;;;;;;0.10;0.10;;;38.70;26.00;;;;;;5048564;28;20399;-85
2021/07/02 09:32:43;;;;;;;0.00;0.00;;;39.90;20.60;;;;;;5048639;28;20022;-85
2021/07/02 09:35:11;;;;;;;0.00;0.00;;;41.50;17.30;;;;;;5048457;28;20451;-85
2021/07/02 09:37:41;;;;;;;0.03;0.03;;;39.90;14.80;;;;;;5052269;28;20067;-85
2021/07/02 09:40:18;;;;;;;0.90;0.52;;;39.50;23.30;;;;;;5052247;28;20506;-85
2021/07/02 09:42:44;;;;;;;0.20;0.20;;;39.40;22.90;;;;;;5052222;28;20056;-85
2021/07/02 09:45:12;;;;;;;;;;;37.70;26.40;;;;;;5052452;28;20512;-85
2021/07/02 09:47:42;;;;;;;0.08;0.08;;;37.60;26.00;;;;;;5051947;28;19955;-84
2021/07/02 09:50:18;;;;;;;0.10;0.10;;;37.60;19.70;;;;;;5052050;28;20029;-85
2021/07/02 09:52:49;;;;;;;0.00;0.00;;;39.40;19.90;;;;;;5057233;28;20531;-85
2021/07/02 09:55:26;;;;;;;0.00;0.00;;;40.70;13.40;;;;;;5067989;28;20044;-85
2021/07/02 09:58:09;;;;;;;0.10;0.10;;;41.30;10.10;;;;;;5059960;28;20087;-85
2021/07/02 10:00:43;;;;;;;0.00;0.00;;;39.90;15.90;;;;;;5063968;28;20035;-83
2021/07/02 10:03:15;;;;;;;0.30;0.20;;;38.80;19.40;;;;;;5065384;28;20017;-84
2021/07/02 10:06:00;;;;;;;0.25;0.20;;;37.50;18.20;;;;;;5050976;28;20041;-84
2021/07/02 10:08:35;;;;;;;0.10;0.00;;;36.30;18.20;;;;;;5055204;28;20031;-84
2021/07/02 10:11:29;;;;;;;0.00;0.00;;;37.50;20.70;;;;;;5057877;28;20036;-84
2021/07/02 10:13:59;;;;;;;0.00;0.00;;;38.40;10.30;;;;;;5052919;28;20091;-84
2021/07/02 10:16:30;;;;;;;0.93;0.10;;;37.00;19.10;;;;;;5042501;28;20066;-83
2021/07/02 10:18:59;;;;;;;0.10;0.10;;;36.40;13.90;;;;;;5062041;28;20025;-83
2021/07/02 10:21:25;;;;;;;0.17;0.08;;;35.00;18.60;;;;;;5067399;28;20032;-83
2021/07/02 10:23:54;;;;;;;;;;;34.70;19.70;;;;;;5069248;28;20113;-83
2021/07/02 10:26:20;;;;;;;0.00;0.00;;;36.40;16.20;;;;;;5071070;28;19958;-83
2021/07/02 10:28:47;;;;;;;0.00;0.00;;;38.50;15.10;;;;;;5071107;28;20031;-83
2021/07/02 10:31:15;;;;;;;4.63;0.25;;;35.30;23.10;;;;;;5070996;28;20065;-83
2021/07/02 10:33:54;;;;;;;0.55;0.28;;;37.10;20.30;;;;;;5070565;28;20017;-83
2021/07/02 10:36:21;;;;;;;0.00;0.00;;;36.70;20.70;;;;;;5070687;28;20020;-83
2021/07/02 10:38:52;;;;;;;0.32;0.32;;;35.60;18.90;;;;;;5070813;28;20067;-83
2021/07/02 10:41:19;;;;;;;0.00;0.00;;;36.60;14.00;;;;;;5053952;28;20060;-84
2021/07/02 10:44:03;;;;;;;0.10;0.10;;;38.40;14.00;;;;;;5050089;28;20063;-85
2021/07/02 10:46:31;;;;;;;0.00;0.00;;;38.50;11.90;;;;;;5048886;28;20656;-84
2021/07/02 10:49:02;;;;;;;0.20;0.20;;;36.40;10.10;;;;;;5050841;28;20090;-85
2021/07/02 10:51:35;;;;;;;0.28;0.25;;;34.50;19.60;;;;;;5050055;28;20031;-85
2021/07/02 10:54:09;;;;;;;0.20;0.20;;;33.50;17.80;;;;;;5050685;28;20556;-83
2021/07/02 10:56:37;;;;;;;0.10;0.10;;;33.40;22.80;;;;;;5050130;28;20836;-83
2021/07/02 10:59:03;;;;;;;0.10;0.10;;;35.50;17.60;;;;;;5050304;28;20017;-84
2021/07/02 11:01:32;;;;;;;0.10;0.10;;;37.90;13.00;;;;;;5052412;28;20123;-83
2021/07/02 11:04:35;;;;;;;0.08;0.00;;;37.40;15.50;;;;;;5048544;28;20083;-83
2021/07/02 11:07:22;;;;;;;0.32;0.22;;;37.90;13.40;;;;;;5049147;28;20036;-83
2021/07/02 11:10:03;;;;;;;0.20;0.20;;;36.90;6.60;;;;;;5057639;28;20540;-83
2021/07/02 11:12:33;;;;;;;0.15;0.15;;;38.50;9.90;;;;;;5069839;28;20060;-84
2021/07/02 11:15:02;;;;;;;0.10;0.10;;;36.00;11.80;;;;;;5068011;28;20024;-81
2021/07/02 11:17:42;;;;;;;0.00;0.00;;;36.00;9.80;;;;;;5069426;28;20031;-81
2021/07/02 11:20:21;;;;;;;0.00;0.00;;;37.10;11.80;;;;;;5069877;28;20024;-86
2021/07/02 11:22:57;;;;;;;1.08;0.55;;;31.90;20.60;;;;;;5069796;28;20430;-84
2021/07/02 11:25:34;;;;;;;0.25;0.08;;;34.60;15.70;;;;;;5070165;28;20066;-85
2021/07/02 11:28:04;;;;;;;0.32;0.30;;;31.60;20.80;;;;;;5069846;28;20107;-83
2021/07/02 11:30:42;;;;;;;0.00;0.00;;;36.20;15.40;;;;;;5068470;28;20021;-83
2021/07/02 11:33:07;;;;;;;0.10;0.10;;;38.80;11.10;;;;;;5068402;28;20475;-83
2021/07/02 11:35:37;;;;;;;0.10;0.10;;;35.50;15.60;;;;;;5069906;28;20025;-84
2021/07/02 11:38:25;;;;;;;0.10;0.10;;;31.80;22.10;;;;;;5069647;28;20111;-83
2021/07/02 11:40:55;;;;;;;0.30;0.30;;;31.10;24.20;;;;;;5063804;28;20086;-83
2021/07/02 11:43:29;;;;;;;3.60;0.47;;;30.80;23.80;;;;;;5068221;28;20147;-83
2021/07/02 11:45:57;;;;;;;0.43;0.40;;;30.90;24.40;;;;;;5068415;28;20417;-83
2021/07/02 11:48:31;;;;;;;0.00;0.00;;;30.10;27.50;;;;;;5068667;28;20029;-83
2021/07/02 11:51:24;;;;;;;0.10;0.10;;;30.00;29.10;;;;;;5069000;28;20020;-83
2021/07/02 11:53:51;;;;;;;0.25;0.20;;;29.70;29.50;;;;;;5069591;28;20037;-83
2021/07/02 11:56:23;;;;;;;0.13;0.10;;;29.30;31.90;;;;;;5069564;28;20112;-83
2021/07/02 11:58:50;;;;;;;0.15;0.15;;;29.00;32.00;;;;;;5067328;28;20120;-83
2021/07/02 12:01:19;;;;;;;0.08;0.08;;;28.80;32.30;;;;;;5069494;28;20036;-83
2021/07/02 12:03:56;;;;;;;0.10;0.10;;;28.70;32.50;;;;;;5069101;28;20032;-83
2021/07/02 12:06:27;;;;;;;0.20;0.20;;;29.00;33.20;;;;;;5069122;28;20052;-83
2021/07/02 12:09:06;;;;;;;0.98;0.30;;;29.40;31.20;;;;;;5068224;28;20027;-83
2021/07/02 12:11:37;;;;;;;0.85;0.20;;;29.40;29.70;;;;;;5047850;28;20027;-83
2021/07/02 12:14:06;;;;;;;0.00;0.00;;;28.40;32.30;;;;;;5049197;28;20025;-83
2021/07/02 12:16:37;;;;;;;0.03;0.03;;;28.50;32.00;;;;;;5048920;28;20025;-83
2021/07/02 12:19:06;;;;;;;1.65;0.25;;;28.10;34.30;;;;;;5048952;28;20029;-83
2021/07/02 12:21:33;;;;;;;3.40;0.10;;;27.50;35.00;;;;;;5048974;28;20029;-83
2021/07/02 12:24:02;;;;;;;0.20;0.20;;;27.90;34.00;;;;;;5048765;28;20021;-83
2021/07/02 12:26:30;;;;;;;0.30;0.30;;;28.10;33.10;;;;;;5048767;28;20028;-83
2021/07/02 12:28:59;;;;;;;0.00;0.00;;;28.10;34.30;;;;;;5048598;28;20024;-83
2021/07/02 12:31:39;;;;;;;0.50;0.47;;;27.40;34.90;;;;;;5057622;28;20013;-83
2021/07/02 12:34:10;;;;;;;0.85;0.38;;;26.90;36.60;;;;;;5067029;28;20027;-83
2021/07/02 12:37:03;;;;;;;0.15;0.08;;;26.40;37.20;;;;;;5067446;28;20044;-83
2021/07/02 12:39:35;;;;;;;0.30;0.30;;;26.60;37.70;;;;;;5068920;28;20031;-83
2021/07/02 12:42:23;;;;;;;0.10;0.00;;;26.70;38.40;;;;;;5068526;28;20036;-83
2021/07/02 12:44:51;;;;;;;0.00;0.00;;;26.60;40.30;;;;;;5068747;28;20032;-83
2021/07/02 12:47:19;;;;;;;0.10;0.10;;;26.60;39.70;;;;;;5068527;28;20138;-83
2021/07/02 12:49:56;;;;;;;0.00;0.00;;;27.50;39.20;;;;;;5068961;28;20777;-83
2021/07/02 12:54:52;;;;;;;0.52;0.52;;;28.20;35.90;;;;;;5068488;28;20028;-83
2021/07/02 12:57:20;;;;;;;0.10;0.10;;;29.70;31.50;;;;;;5068550;28;20024;-83
2021/07/02 12:59:51;;;;;;;0.03;0.03;;;30.50;28.80;;;;;;5068725;28;20032;-83
2021/07/02 13:02:31;;;;;;;0.00;0.00;;;30.80;28.60;;;;;;5068260;28;20036;-83